Time;durP1;ratioP1;P1;durP2;ratioP2;P2;SDS_P1;SDS_P2;PMS_P1;PMS_P2;Temp;Humidity;BMP_temperature;BMP_pressure;BME280_temperature;BME280_humidity;BME280_pressure;Samples;Min_cycle;Max_cycle;Signal;HPM_P1;HPM_P2
2022/05/24 00:00:22;;;;;;;;;4.33;3.00;;;;;17.95;58.63;100076.53;5057752;28;45353;-77
2022/05/24 00:02:48;;;;;;;;;2.67;2.67;;;;;17.46;58.44;100013.94;5057808;28;45386;-74
2022/05/24 00:05:14;;;;;;;;;4.00;2.00;;;;;17.30;58.31;100000.44;5049602;27;45363;-74
2022/05/24 00:07:40;;;;;;;;;2.00;2.00;;;;;17.77;58.35;100101.03;5059370;28;47190;-82
2022/05/24 00:10:09;;;;;;;;;3.33;2.00;;;;;17.20;57.88;100013.13;5060951;28;45426;-77
2022/05/24 00:12:37;;;;;;;;;4.33;3.00;;;;;17.58;58.14;100079.66;5061498;28;45627;-76
2022/05/24 00:15:30;;;;;;;;;2.00;2.00;;;;;17.22;58.22;100031.59;5062235;28;45323;-77
2022/05/24 00:18:09;;;;;;;;;2.00;2.00;;;;;17.62;58.38;100122.81;5062550;28;46122;-75
2022/05/24 00:20:43;;;;;;;;;2.00;2.00;;;;;17.37;58.18;100105.19;5060623;28;45425;-77
2022/05/24 00:23:09;;;;;;;;;0.00;0.00;;;;;17.57;58.25;100136.22;5060070;28;45341;-73
2022/05/24 00:25:40;;;;;;;;;2.33;2.33;;;;;17.44;57.96;100114.63;5050838;28;45672;-75
2022/05/24 00:28:07;;;;;;;;;1.00;1.00;;;;;17.46;57.69;100122.47;5040295;28;46452;-74
2022/05/24 00:30:34;;;;;;;;;2.00;2.00;;;;;17.48;57.33;100123.31;5039814;28;45473;-76
2022/05/24 00:32:59;;;;;;;;;1.67;1.67;;;;;17.38;57.42;100094.50;5039691;28;45395;-75
2022/05/24 00:35:25;;;;;;;;;2.00;1.00;;;;;17.55;57.29;100122.16;5039832;28;45452;-76
2022/05/24 00:37:52;;;;;;;;;1.00;1.00;;;;;17.47;56.98;100114.50;5039380;28;45431;-74
2022/05/24 00:40:30;;;;;;;;;2.00;2.00;;;;;16.73;56.96;99979.53;5039394;28;45462;-77
2022/05/24 00:42:56;;;;;;;;;1.00;1.00;;;;;17.30;56.88;100067.47;5039779;28;45290;-76
2022/05/24 00:45:32;;;;;;;;;2.00;1.67;;;;;17.14;56.80;100051.28;5040087;28;45172;-76
2022/05/24 00:48:08;;;;;;;;;1.00;1.00;;;;;17.14;56.57;100051.28;5039368;28;45556;-77
2022/05/24 00:50:42;;;;;;;;;2.00;1.00;;;;;17.24;56.54;100061.53;5039736;28;45437;-77
2022/05/24 00:53:21;;;;;;;;;1.00;1.00;;;;;17.42;56.58;100099.72;5039554;28;45380;-77
2022/05/24 00:55:57;;;;;;;;;2.00;1.00;;;;;17.38;56.52;100089.22;5039692;28;45323;-77
2022/05/24 00:58:36;;;;;;;;;3.00;1.00;;;;;17.18;56.17;100046.75;5038965;28;46178;-76
2022/05/24 01:01:15;;;;;;;;;3.00;1.67;;;;;17.46;56.40;100088.06;5039347;28;45960;-73
2022/05/24 01:03:41;;;;;;;;;1.00;1.00;;;;;17.50;55.90;100100.28;5039783;28;45571;-75
2022/05/24 01:06:07;;;;;;;;;0.67;0.67;;;;;17.48;56.08;100105.63;5039701;28;45341;-71
2022/05/24 01:08:32;;;;;;;;;2.00;1.00;;;;;17.45;55.81;100115.47;5038957;28;46447;-72
2022/05/24 01:11:00;;;;;;;;;1.00;1.00;;;;;17.43;55.81;100122.59;5039093;28;45338;-76
2022/05/24 01:13:30;;;;;;;;;1.00;1.00;;;;;17.30;55.71;100095.72;5039819;28;45536;-79
2022/05/24 01:15:55;;;;;;;;;1.00;1.00;;;;;17.41;55.94;100127.09;5038687;28;45373;-76
2022/05/24 01:18:24;;;;;;;;;1.00;1.00;;;;;17.11;55.87;100074.34;5041770;28;46191;-77
2022/05/24 01:21:00;;;;;;;;;2.00;0.33;;;;;17.37;55.66;100124.56;5041814;28;45334;-77
2022/05/24 01:23:47;;;;;;;;;1.00;1.00;;;;;17.35;55.63;100131.69;5040521;28;45941;-77
2022/05/24 01:26:27;;;;;;;;;1.33;1.33;;;;;17.29;55.45;100128.38;5039990;28;45412;-74
2022/05/24 01:28:59;;;;;;;;;2.00;1.00;;;;;17.33;55.54;100130.00;5039171;28;45678;-79
2022/05/24 01:36:59;;;;;;;;;2.00;1.00;;;;;17.22;55.22;100133.03;5048628;28;45459;-78
2022/05/24 01:39:27;;;;;;;;;1.00;1.00;;;;;17.11;55.33;100119.31;5044185;28;47294;-77
2022/05/24 01:41:53;;;;;;;;;2.00;1.00;;;;;17.18;55.29;100126.13;5040794;28;45294;-77
2022/05/24 01:44:26;;;;;;;;;0.33;0.33;;;;;17.04;55.30;100104.59;5039810;28;45325;-78
2022/05/24 01:46:52;;;;;;;;;0.67;0.67;;;;;17.07;55.26;100118.56;5045950;28;45462;-76
2022/05/24 01:49:24;;;;;;;;;2.33;1.00;;;;;16.82;55.13;100094.72;5045481;28;45326;-75
2022/05/24 01:52:01;;;;;;;;;1.00;1.00;;;;;17.01;55.05;100139.06;5039480;28;45355;-78
2022/05/24 01:54:30;;;;;;;;;1.67;1.33;;;;;16.89;55.03;100117.38;5038831;28;45493;-78
2022/05/24 01:57:12;;;;;;;;;0.00;0.00;;;;;16.79;55.45;100113.34;5038527;28;45463;-77
2022/05/24 01:59:43;;;;;;;;;0.00;0.00;;;;;16.99;55.46;100140.88;5038143;28;46521;-78
2022/05/24 02:02:09;;;;;;;;;1.67;1.67;;;;;16.97;55.31;100153.34;5039005;28;45387;-76
2022/05/24 02:04:35;;;;;;;;;1.00;1.00;;;;;16.88;55.30;100150.06;5038631;28;45346;-77
2022/05/24 02:07:14;;;;;;;;;0.00;0.00;;;;;16.66;55.29;100109.34;5038650;28;45374;-78
2022/05/24 02:09:43;;;;;;;;;0.33;0.33;;;;;16.73;55.14;100132.03;5038667;28;46593;-78
2022/05/24 02:12:28;;;;;;;;;1.00;1.00;;;;;16.50;55.28;100104.56;5038127;28;45424;-75
2022/05/24 02:15:05;;;;;;;;;0.00;0.00;;;;;16.28;55.46;100067.41;5038355;28;45389;-77
2022/05/24 02:17:47;;;;;;;;;1.00;1.00;;;;;16.25;55.33;100071.91;5038438;28;45347;-80
2022/05/24 02:20:21;;;;;;;;;1.00;1.00;;;;;16.44;55.56;100093.31;5036996;28;46496;-78
2022/05/24 02:22:48;;;;;;;;;1.00;1.00;;;;;16.04;55.39;100050.56;5036525;28;45332;-78
2022/05/24 02:25:20;;;;;;;;;0.00;0.00;;;;;16.46;55.40;100120.56;5037068;28;45541;-80
2022/05/24 02:27:47;;;;;;;;;1.00;1.00;;;;;16.60;55.15;100139.50;5038298;28;45714;-72
2022/05/24 02:30:19;;;;;;;;;0.00;0.00;;;;;16.39;54.93;100101.38;5038051;28;45557;-78
2022/05/24 02:32:45;;;;;;;;;1.00;1.00;;;;;16.59;54.96;100134.28;5036965;28;45399;-76
2022/05/24 02:35:11;;;;;;;;;2.67;0.00;;;;;16.46;55.51;100126.72;5037066;28;45421;-78
2022/05/24 02:37:43;;;;;;;;;2.00;1.00;;;;;16.48;55.59;100146.03;5036760;28;45494;-80
2022/05/24 02:42:55;;;;;;;;;0.00;0.00;;;;;16.57;55.42;100147.53;5038400;28;45512;-78
2022/05/24 02:45:22;;;;;;;;;0.00;0.00;;;;;16.44;55.41;100119.75;5038338;28;45483;-79
2022/05/24 02:47:48;;;;;;;;;1.00;1.00;;;;;16.44;55.19;100123.25;5039022;28;45502;-78
2022/05/24 02:50:14;;;;;;;;;1.67;1.00;;;;;16.56;55.68;100156.34;5038366;28;46456;-79
2022/05/24 02:52:41;;;;;;;;;2.00;0.00;;;;;16.56;55.32;100155.50;5037888;28;45219;-77
2022/05/24 02:55:10;;;;;;;;;0.00;0.00;;;;;16.57;55.34;100162.53;5038322;28;45229;-74
2022/05/24 02:57:38;;;;;;;;;2.00;0.00;;;;;16.53;55.35;100157.31;5038934;28;45254;-77
2022/05/24 03:00:10;;;;;;;;;0.67;0.67;;;;;16.38;55.42;100149.88;5036575;28;45618;-80
2022/05/24 03:02:35;;;;;;;;;1.00;1.00;;;;;16.51;55.90;100168.84;5039735;28;45377;-75
2022/05/24 03:05:03;;;;;;;;;1.00;1.00;;;;;16.31;55.77;100125.41;5038770;28;45425;-79
2022/05/24 03:10:13;;;;;;;;;0.67;0.00;;;;;16.57;55.75;100175.75;5037886;28;45454;-75
2022/05/24 03:15:26;;;;;;;;;1.00;1.00;;;;;16.42;55.39;100159.47;5038236;28;45382;-77
2022/05/24 03:17:52;;;;;;;;;2.00;2.00;;;;;15.97;55.79;100088.63;5037677;28;45393;-77
2022/05/24 03:20:17;;;;;;;;;1.00;1.00;;;;;16.23;55.55;100142.41;5037370;28;46226;-72
2022/05/24 03:22:43;;;;;;;;;1.00;1.00;;;;;16.38;55.63;100184.25;5037191;28;45515;-78
2022/05/24 03:25:10;;;;;;;;;1.00;1.00;;;;;16.36;55.69;100182.56;5037203;28;45445;-70
2022/05/24 03:27:36;;;;;;;;;2.00;1.00;;;;;16.31;55.73;100177.41;5037300;28;45570;-72
2022/05/24 03:30:01;;;;;;;;;0.00;0.00;;;;;16.06;55.78;100135.91;5036926;28;45409;-70
2022/05/24 03:32:28;;;;;;;;;0.00;0.00;;;;;16.33;55.69;100183.53;5036450;28;45316;-78
2022/05/24 03:34:54;;;;;;;;;0.00;0.00;;;;;16.07;55.76;100136.75;5035335;28;45429;-78
2022/05/24 03:37:19;;;;;;;;;2.00;0.00;;;;;16.41;55.38;100194.72;5037288;28;45354;-73
2022/05/24 03:39:45;;;;;;;;;0.00;0.00;;;;;16.43;55.50;100208.75;5035131;28;46875;-71
2022/05/24 03:42:11;;;;;;;;;4.00;0.67;;;;;16.44;55.41;100206.97;5035708;28;45367;-75
2022/05/24 03:44:36;;;;;;;;;0.00;0.00;;;;;16.32;55.55;100187.94;5037229;28;45350;-78
2022/05/24 03:47:04;;;;;;;;;1.00;1.00;;;;;16.29;55.71;100184.53;5037408;28;45261;-73
2022/05/24 03:49:31;;;;;;;;;2.00;0.33;;;;;16.43;55.61;100208.75;5037003;28;45505;-76
2022/05/24 03:51:57;;;;;;;;;1.00;1.00;;;;;16.37;55.83;100210.72;5036640;28;45403;-76
2022/05/24 03:54:22;;;;;;;;;1.00;1.00;;;;;16.04;55.67;100172.06;5036888;28;45373;-75
2022/05/24 03:59:32;;;;;;;;;1.00;0.67;;;;;16.27;57.66;100218.91;5037258;28;45542;-79
2022/05/24 04:01:58;;;;;;;;;0.00;0.00;;;;;16.49;56.29;100234.13;5036880;28;45409;-80
2022/05/24 04:04:24;;;;;;;;;1.00;1.00;;;;;16.26;56.65;100187.25;5037252;28;45407;-78
2022/05/24 04:06:50;;;;;;;;;1.00;1.00;;;;;16.62;56.98;100242.56;5036107;28;45433;-79
2022/05/24 04:09:15;;;;;;;;;1.00;1.00;;;;;16.52;56.12;100220.84;5036810;28;45441;-76
2022/05/24 04:11:42;;;;;;;;;1.00;1.00;;;;;16.77;55.95;100242.06;5035755;28;45239;-77
2022/05/24 04:14:07;;;;;;;;;1.00;1.00;;;;;16.79;54.99;100250.84;5036933;28;45345;-75
2022/05/24 04:16:33;;;;;;;;;2.00;0.33;;;;;16.15;54.96;100150.59;5049875;28;45415;-80
2022/05/24 04:18:58;;;;;;;;;0.33;0.33;;;;;16.62;56.08;100238.13;5047977;28;45345;-75
2022/05/24 04:21:24;;;;;;;;;1.00;1.00;;;;;16.77;55.10;100252.66;5037963;28;45299;-77
2022/05/24 04:36:59;;;;;;;;;2.00;1.00;;;;;16.14;56.28;100275.69;5093897;27;45528;-72
2022/05/24 04:39:25;;;;;;;;;2.00;2.00;;;;;16.05;56.68;100268.00;5074621;28;45539;-81
2022/05/24 04:44:35;;;;;;;;;1.00;1.00;;;;;16.03;57.80;100236.34;5074742;28;45373;-80
2022/05/24 04:47:07;;;;;;;;;1.00;1.00;;;;;16.32;56.92;100272.53;5074127;28;46386;-72
2022/05/24 04:49:34;;;;;;;;;0.33;0.00;;;;;16.42;55.49;100283.69;5073811;28;45695;-75
2022/05/24 04:52:00;;;;;;;;;2.00;0.33;;;;;16.46;55.35;100295.88;5074258;27;45514;-77
2022/05/24 04:54:25;;;;;;;;;0.00;0.00;;;;;16.31;55.37;100269.91;5077527;27;45305;-76
2022/05/24 04:56:51;;;;;;;;;1.00;1.00;;;;;15.86;55.47;100197.22;5077388;27;45374;-82
2022/05/24 04:59:28;;;;;;;;;0.00;0.00;;;;;16.23;55.77;100261.31;5076957;27;45337;-80
2022/05/24 05:01:56;;;;;;;;;1.00;1.00;;;;;16.47;55.43;100288.84;5075480;27;45421;-79
2022/05/24 05:04:24;;;;;;;;;0.67;0.33;;;;;16.48;55.40;100304.63;5074986;27;45419;-82
2022/05/24 05:06:51;;;;;;;;;1.00;1.00;;;;;16.41;55.12;100287.22;5060164;28;45344;-81
2022/05/24 05:09:18;;;;;;;;;0.00;0.00;;;;;16.53;54.89;100305.34;5074576;27;45544;-80
2022/05/24 05:11:44;;;;;;;;;0.67;0.67;;;;;16.57;54.87;100308.78;5068370;27;45405;-80
2022/05/24 05:14:11;;;;;;;;;0.33;0.33;;;;;16.49;54.77;100297.56;5066875;27;45220;-81
2022/05/24 05:16:38;;;;;;;;;2.00;0.33;;;;;16.60;54.45;100302.53;5070628;27;45665;-80
2022/05/24 05:19:05;;;;;;;;;0.00;0.00;;;;;16.44;55.07;100300.34;5053415;28;45575;-79
2022/05/24 05:21:33;;;;;;;;;0.00;0.00;;;;;16.43;54.93;100277.47;5063957;27;45973;-78
2022/05/24 05:24:00;;;;;;;;;1.00;1.00;;;;;16.66;54.62;100311.16;5056459;28;45716;-81
2022/05/24 05:26:26;;;;;;;;;1.00;0.00;;;;;16.71;54.41;100318.97;5053996;27;45286;-80
2022/05/24 05:28:58;;;;;;;;;0.00;0.00;;;;;16.72;54.54;100325.97;5073545;27;45509;-77
2022/05/24 05:31:26;;;;;;;;;1.67;1.00;;;;;16.79;54.15;100332.84;5074381;27;45333;-80
2022/05/24 05:33:59;;;;;;;;;0.00;0.00;;;;;16.56;54.16;100285.03;5076578;27;45312;-76
2022/05/24 05:36:30;;;;;;;;;1.67;0.00;;;;;16.70;54.22;100304.88;5088963;27;45338;-80
2022/05/24 05:38:57;;;;;;;;;0.67;0.33;;;;;16.73;54.06;100314.50;5080673;27;45488;-78
2022/05/24 05:41:28;;;;;;;;;1.00;1.00;;;;;16.28;53.75;100241.81;5097998;27;45454;-71
2022/05/24 05:43:56;;;;;;;;;2.00;0.67;;;;;16.92;54.50;100344.78;5081260;27;45614;-78
2022/05/24 05:46:21;;;;;;;;;1.00;1.00;;;;;16.82;53.78;100334.53;5074791;27;45382;-71
2022/05/24 05:48:47;;;;;;;;;0.00;0.00;;;;;16.94;53.85;100353.56;5063455;28;45490;-82
2022/05/24 05:51:15;;;;;;;;;1.00;1.00;;;;;16.81;54.36;100336.31;5078607;28;45249;-79
2022/05/24 05:53:42;;;;;;;;;0.00;0.00;;;;;16.91;54.21;100364.22;5059995;28;45414;-80
2022/05/24 05:56:15;;;;;;;;;0.00;0.00;;;;;16.41;53.53;100279.28;5059838;28;45599;-80
2022/05/24 05:58:40;;;;;;;;;0.67;0.67;;;;;16.61;54.03;100338.63;5059231;28;45437;-81
2022/05/24 06:01:06;;;;;;;;;0.00;0.00;;;;;16.65;53.60;100342.94;5076472;28;45346;-78
2022/05/24 06:03:33;;;;;;;;;2.00;1.00;;;;;16.83;53.62;100381.25;5078885;28;45397;-79
2022/05/24 06:06:00;;;;;;;;;1.33;1.33;;;;;16.83;53.98;100381.25;5063836;28;45509;-81
2022/05/24 06:08:26;;;;;;;;;1.67;1.00;;;;;16.82;53.90;100380.34;5058185;28;45607;-76
2022/05/24 06:10:53;;;;;;;;;1.00;1.00;;;;;16.82;54.21;100390.94;5063454;28;45580;-77
2022/05/24 06:13:19;;;;;;;;;1.00;1.00;;;;;16.18;53.84;100287.88;5059119;28;45337;-79
2022/05/24 06:15:49;;;;;;;;;2.33;1.00;;;;;16.85;53.82;100395.28;5061981;28;46267;-82
2022/05/24 06:18:15;;;;;;;;;1.00;1.00;;;;;16.86;53.74;100403.16;5043327;28;45745;-79
2022/05/24 06:20:41;;;;;;;;;0.33;0.33;;;;;16.85;53.81;100388.22;5062752;28;45442;-80
2022/05/24 06:23:06;;;;;;;;;0.33;0.33;;;;;16.89;53.57;100394.28;5050846;28;45635;-73
2022/05/24 06:25:32;;;;;;;;;0.33;0.33;;;;;16.67;53.28;100363.13;5070222;28;45672;-77
2022/05/24 06:27:58;;;;;;;;;1.00;1.00;;;;;16.76;53.08;100372.59;5059512;28;45457;-74
2022/05/24 06:30:25;;;;;;;;;3.00;1.00;;;;;16.74;53.61;100355.88;5070602;28;45805;-75
2022/05/24 06:32:51;;;;;;;;;1.00;0.33;;;;;17.02;53.02;100402.72;5061185;28;45567;-79
2022/05/24 06:35:18;;;;;;;;;0.33;0.33;;;;;16.71;53.27;100353.34;5078265;27;45579;-81
2022/05/24 06:37:45;;;;;;;;;0.00;0.00;;;;;17.10;52.70;100416.56;5078906;28;45465;-81
2022/05/24 06:40:15;;;;;;;;;0.00;0.00;;;;;16.60;52.64;100331.63;5076789;28;46911;-80
2022/05/24 06:42:40;;;;;;;;;2.00;0.67;;;;;16.94;52.70;100385.31;5060990;28;45515;-77
2022/05/24 06:45:08;;;;;;;;;2.67;1.00;;;;;17.12;53.15;100418.25;5080312;28;45305;-82
2022/05/24 06:47:34;;;;;;;;;1.00;1.00;;;;;16.34;52.87;100298.88;5080307;28;45428;-81
2022/05/24 06:49:59;;;;;;;;;0.33;0.33;;;;;17.19;52.24;100421.59;5081057;28;45339;-82
2022/05/24 06:52:25;;;;;;;;;1.67;1.00;;;;;16.45;52.59;100304.72;5062076;28;45296;-79
2022/05/24 06:54:53;;;;;;;;;2.67;1.00;;;;;16.96;52.11;100382.59;5061990;28;46982;-78
2022/05/24 06:57:19;;;;;;;;;1.00;1.00;;;;;16.85;51.85;100372.34;5081029;28;45469;-83
2022/05/24 07:02:30;;;;;;;;;0.00;0.00;;;;;17.18;51.67;100441.06;5073883;28;45338;-79
2022/05/24 07:05:01;;;;;;;;;0.67;0.00;;;;;16.64;51.82;100359.72;5070488;28;45474;-81
2022/05/24 07:07:30;;;;;;;;;1.00;1.00;;;;;16.70;51.93;100378.03;5061143;27;45612;-81
2022/05/24 07:09:56;;;;;;;;;0.67;0.67;;;;;16.99;51.94;100431.91;5076605;27;45729;-81
2022/05/24 07:12:22;;;;;;;;;1.00;1.00;;;;;16.23;52.05;100299.19;5074633;27;45706;-82
2022/05/24 07:14:49;;;;;;;;;0.00;0.00;;;;;16.92;52.08;100424.16;5579846;22;46436;-78
2022/05/24 08:04:21;;;;;;;;;2.00;1.00;;;;;17.84;49.06;100470.78;5056909;28;45524;-78
2022/05/24 08:06:47;;;;;;;;;1.00;1.00;;;;;17.58;48.76;100415.97;5057181;28;46285;-74
2022/05/24 08:13:07;;;;;;;;;1.00;1.00;;;;;17.96;47.85;100462.47;5056554;28;45511;-81
2022/05/24 08:15:33;;;;;;;;;1.00;1.00;;;;;17.83;48.04;100444.34;5056599;28;45512;-80
2022/05/24 08:38:12;;;;;;;;;1.00;1.00;;;;;18.21;46.11;100398.88;5050186;28;45466;-77
2022/05/24 08:40:40;;;;;;;;;1.00;1.00;;;;;18.47;45.26;100449.25;5055966;28;45532;-82
2022/05/24 08:43:09;;;;;;;;;2.00;1.00;;;;;18.42;45.18;100467.97;5056200;28;45773;-79
2022/05/24 08:56:05;;;;;;;;;1.00;0.33;;;;;18.54;45.14;100469.34;5056336;28;45767;-81
2022/05/24 08:58:35;;;;;;;;;0.33;0.33;;;;;18.10;44.70;100385.13;5038300;28;45473;-80
2022/05/24 09:01:02;;;;;;;;;1.00;1.00;;;;;18.36;44.62;100423.09;5056299;28;45438;-79
2022/05/24 09:31:01;;;;;;;;;1.67;1.00;;;;;19.20;44.64;100474.94;5060985;28;45282;-80
2022/05/24 09:33:31;;;;;;;;;2.33;1.00;;;;;18.77;43.82;100395.13;5060469;28;46136;-74
2022/05/24 09:36:00;;;;;;;;;1.00;1.00;;;;;19.38;44.32;100482.16;5042146;28;45739;-79
2022/05/24 09:38:35;;;;;;;;;1.00;1.00;;;;;19.33;42.98;100462.91;5059963;28;45445;-80
2022/05/24 09:41:13;;;;;;;;;1.00;1.00;;;;;19.28;43.54;100459.56;5059634;28;45612;-79
2022/05/24 09:43:40;;;;;;;;;2.00;2.00;;;;;19.28;42.52;100470.19;5058547;28;45560;-78
2022/05/24 10:51:40;;;;;;;;;0.33;0.33;;;;;19.34;42.14;100515.09;5055511;28;45678;-71
2022/05/24 10:54:16;;;;;;;;;2.00;2.00;;;;;19.27;41.88;100497.66;5058709;28;45323;-73
2022/05/24 11:17:41;;;;;;;;;1.33;0.67;;;;;19.41;42.08;100508.63;5057025;28;45402;-73
2022/05/24 11:20:10;;;;;;;;;2.67;1.00;;;;;19.32;42.00;100498.34;5044839;28;45479;-71
2022/05/24 11:22:41;;;;;;;;;3.67;2.00;;;;;19.58;42.52;100515.94;5038531;28;45388;-72
2022/05/24 11:25:26;;;;;;;;;1.00;1.00;;;;;19.81;41.15;100515.09;5071865;28;45359;-73
2022/05/24 11:28:05;;;;;;;;;3.00;2.00;;;;;19.79;41.46;100487.69;5070834;28;46146;-74
2022/05/24 11:30:34;;;;;;;;;1.00;1.00;;;;;19.91;40.48;100503.16;5057026;28;45548;-70
2022/05/24 11:33:05;;;;;;;;;0.00;0.00;;;;;19.94;40.44;100502.16;5057176;28;45525;-70
2022/05/24 11:49:19;;;;;;;;;2.00;1.00;;;;;19.89;39.78;100502.34;5038867;28;45367;-74
2022/05/24 11:51:53;;;;;;;;;2.33;0.33;;;;;19.60;40.72;100452.09;5044519;28;46198;-75
2022/05/24 11:54:18;;;;;;;;;0.00;0.00;;;;;20.03;40.83;100487.63;5056020;28;45486;-73
2022/05/24 11:57:14;;;;;;;;;3.00;3.00;;;;;20.22;44.26;100491.25;5056799;28;45346;-76
2022/05/24 11:59:40;;;;;;;;;2.00;1.00;;;;;20.37;40.67;100496.84;5056572;28;45552;-73
2022/05/24 12:02:33;;;;;;;;;4.00;2.00;;;;;20.29;39.75;100497.19;5055781;28;45598;-73
2022/05/24 12:11:14;;;;;;;;;4.67;4.67;;;;;19.99;39.25;100491.34;5057928;28;45505;-74
2022/05/24 12:13:46;;;;;;;;;3.33;3.33;;;;;19.52;39.59;100425.00;5056182;28;45707;-72
2022/05/24 12:36:54;;;;;;;;;45.50;36.00;;;;;20.13;40.23;100508.44;5066533;28;45641;-73
2022/05/24 13:13:20;;;;;;;;;2.00;2.00;;;;;21.56;36.57;100451.56;5060080;28;45580;-73
2022/05/24 13:15:53;;;;;;;;;4.00;2.67;;;;;21.84;37.15;100481.34;5042851;28;45294;-72
2022/05/24 13:21:41;;;;;;;;;5.00;4.67;;;;;21.91;37.53;100478.31;5058938;28;45714;-72
2022/05/24 13:37:51;;;;;;;;;1.00;1.00;;;;;21.85;36.65;100491.06;5059818;28;45595;-72
2022/05/24 13:40:17;;;;;;;;;1.00;1.00;;;;;21.89;37.41;100490.00;5061783;28;45362;-72
2022/05/24 13:42:57;;;;;;;;;1.00;1.00;;;;;21.92;36.92;100481.81;5060051;28;46418;-73
2022/05/24 15:39:44;;;;;;;;;1.00;1.00;;;;;22.55;35.06;100572.97;5056182;28;45554;-70
2022/05/24 15:42:12;;;;;;;;;0.00;0.00;;;;;22.38;35.65;100571.16;5056365;28;47151;-77
2022/05/24 15:44:37;;;;;;;;;0.00;0.00;;;;;21.56;36.35;100485.34;5034035;28;45588;-74
2022/05/24 15:50:26;;;;;;;;;0.00;0.00;;;;;21.74;37.48;100590.22;5056975;28;45353;-73
2022/05/24 16:19:46;;;;;;;;;0.00;0.00;;;;;21.10;38.94;100554.91;5056569;28;45440;-73
2022/05/24 16:22:12;;;;;;;;;0.00;0.00;;;;;20.92;38.90;100515.78;5056760;28;45486;-72
2022/05/24 16:24:38;;;;;;;;;0.00;0.00;;;;;21.49;38.87;100602.00;5038643;28;45492;-74
2022/05/24 16:27:04;;;;;;;;;0.00;0.00;;;;;21.59;38.71;100597.13;5056523;28;45583;-73
2022/05/24 16:29:31;;;;;;;;;0.00;0.00;;;;;21.65;38.59;100590.66;5054937;28;46219;-73
2022/05/24 16:31:57;;;;;;;;;1.00;1.00;;;;;21.02;38.37;100474.47;5056278;28;45474;-73
2022/05/24 16:34:23;;;;;;;;;0.67;0.67;;;;;21.64;38.15;100568.47;5038324;28;45456;-70
2022/05/24 16:36:49;;;;;;;;;0.00;0.00;;;;;21.84;37.88;100596.00;5056369;28;45648;-73
2022/05/24 16:39:17;;;;;;;;;3.00;0.00;;;;;21.94;37.48;100621.28;5055856;28;45825;-72
2022/05/24 16:41:42;;;;;;;;;2.00;0.00;;;;;21.99;37.21;100622.78;5056349;28;45296;-73
2022/05/24 16:44:10;;;;;;;;;0.00;0.00;;;;;21.66;37.10;100561.25;5056856;28;45265;-72
2022/05/24 16:46:36;;;;;;;;;0.00;0.00;;;;;21.39;36.93;100523.41;5056893;28;45531;-74
2022/05/24 16:49:03;;;;;;;;;0.00;0.00;;;;;22.01;36.74;100633.38;5056445;28;46334;-75
2022/05/24 16:51:49;;;;;;;;;0.00;0.00;;;;;21.87;36.54;100603.84;5056069;28;45417;-75
2022/05/24 16:59:46;;;;;;;;;1.00;1.00;;;;;21.93;36.47;100620.41;5056607;28;45342;-73
2022/05/24 17:02:14;;;;;;;;;0.00;0.00;;;;;21.89;36.35;100626.81;5038764;28;45509;-73
2022/05/24 17:04:40;;;;;;;;;0.67;0.00;;;;;21.69;36.00;100594.88;5056832;28;45409;-74
2022/05/24 17:07:06;;;;;;;;;0.00;0.00;;;;;21.38;35.77;100533.22;5057247;28;45591;-74
2022/05/24 17:09:32;;;;;;;;;0.00;0.00;;;;;21.83;36.05;100612.91;5056654;28;46497;-72
2022/05/24 17:11:59;;;;;;;;;0.00;0.00;;;;;21.86;35.49;100621.66;5056748;28;45466;-73
2022/05/24 17:14:25;;;;;;;;;0.00;0.00;;;;;21.77;35.23;100608.75;5056525;28;45262;-71
2022/05/24 17:16:51;;;;;;;;;0.33;0.00;;;;;21.27;35.61;100537.28;5056699;28;45173;-71
2022/05/24 17:19:23;;;;;;;;;0.00;0.00;;;;;21.47;35.67;100568.38;5056070;28;46570;-70
2022/05/24 17:21:49;;;;;;;;;0.00;0.00;;;;;21.82;35.85;100633.38;5056239;28;45412;-74
2022/05/24 17:24:18;;;;;;;;;1.00;0.00;;;;;21.82;36.13;100625.38;5056823;28;45446;-71
2022/05/24 17:26:44;;;;;;;;;0.00;0.00;;;;;21.80;36.11;100622.78;5056896;28;45504;-74
2022/05/24 17:29:10;;;;;;;;;0.00;0.00;;;;;21.71;36.49;100627.66;5056050;28;46133;-72
2022/05/24 17:31:35;;;;;;;;;0.00;0.00;;;;;21.06;37.08;100533.81;5056059;28;45549;-71
2022/05/24 17:34:02;;;;;;;;;0.00;0.00;;;;;21.57;37.14;100642.50;5056032;28;45386;-74
2022/05/24 17:36:35;;;;;;;;;0.00;0.00;;;;;21.41;37.56;100630.81;5057082;28;45333;-72
2022/05/24 17:39:01;;;;;;;;;0.00;0.00;;;;;21.42;37.69;100652.97;5056525;28;46192;-71
2022/05/24 17:41:28;;;;;;;;;0.00;0.00;;;;;21.34;37.86;100661.28;5055686;28;45251;-73
2022/05/24 17:43:53;;;;;;;;;0.00;0.00;;;;;21.27;38.06;100663.34;5058184;28;45339;-72
2022/05/24 17:46:19;;;;;;;;;0.00;0.00;;;;;21.04;38.18;100636.84;5059689;28;45237;-69
2022/05/24 17:48:49;;;;;;;;;0.00;0.00;;;;;21.14;38.25;100663.03;5060758;28;45422;-71
2022/05/24 17:51:16;;;;;;;;;1.00;1.00;;;;;21.07;38.13;100666.00;5060528;28;45464;-72
2022/05/24 17:53:43;;;;;;;;;1.33;1.00;;;;;20.87;38.17;100653.53;5061708;28;45470;-70
2022/05/24 17:56:12;;;;;;;;;1.33;1.00;;;;;20.89;38.10;100678.31;5059752;28;45639;-74
2022/05/24 17:58:37;;;;;;;;;0.00;0.00;;;;;20.78;38.17;100681.41;5059905;28;45406;-71
2022/05/24 18:01:03;;;;;;;;;1.00;1.00;;;;;20.53;38.22;100662.88;5059311;28;45391;-74
2022/05/24 18:03:32;;;;;;;;;0.67;0.67;;;;;20.61;38.30;100686.56;5041198;28;45485;-74
2022/05/24 18:05:57;;;;;;;;;0.00;0.00;;;;;20.24;38.73;100642.75;5059322;28;45548;-75
2022/05/24 18:08:23;;;;;;;;;1.00;1.00;;;;;20.48;39.03;100702.13;5059196;28;45407;-73
2022/05/24 18:10:49;;;;;;;;;1.00;1.00;;;;;20.30;38.81;100682.41;5059371;28;45248;-75
2022/05/24 18:13:18;;;;;;;;;1.00;1.00;;;;;20.32;38.56;100696.53;5059284;28;45299;-74
2022/05/24 18:15:43;;;;;;;;;0.00;0.00;;;;;19.89;39.11;100629.91;5059164;28;45260;-75
2022/05/24 18:18:10;;;;;;;;;1.00;1.00;;;;;20.26;39.42;100705.63;5059049;28;45453;-75
2022/05/24 18:20:45;;;;;;;;;1.33;1.33;;;;;20.19;39.67;100705.91;5058968;28;45552;-73
2022/05/24 18:23:17;;;;;;;;;1.00;1.00;;;;;19.94;39.68;100671.41;5058668;28;45406;-74
2022/05/24 18:34:12;;;;;;;;;0.67;0.67;;;;;19.98;40.53;100720.84;5043857;28;45347;-75
2022/05/24 18:36:42;;;;;;;;;2.00;0.00;;;;;19.73;41.04;100679.25;5058964;28;45527;-74
2022/05/24 18:39:08;;;;;;;;;0.00;0.00;;;;;19.66;40.59;100680.38;5058491;28;45514;-74
2022/05/24 18:41:34;;;;;;;;;1.00;1.00;;;;;19.92;42.12;100719.31;5058653;28;45552;-74
2022/05/24 18:44:00;;;;;;;;;2.00;0.00;;;;;19.63;42.08;100681.34;5058270;28;45465;-70
2022/05/24 18:46:26;;;;;;;;;1.00;1.00;;;;;19.97;42.21;100721.78;5058433;28;45485;-73
2022/05/24 18:48:53;;;;;;;;;1.00;1.00;;;;;19.94;42.25;100720.13;5057952;28;45470;-72
2022/05/24 18:51:19;;;;;;;;;2.00;2.00;;;;;19.94;41.71;100728.09;5058453;28;45559;-71
2022/05/24 18:53:45;;;;;;;;;1.67;1.67;;;;;19.83;43.87;100715.19;5058119;28;45160;-74
2022/05/24 18:56:11;;;;;;;;;1.67;1.00;;;;;19.75;42.02;100704.00;5058296;28;45396;-75
2022/05/24 18:58:38;;;;;;;;;2.00;2.00;;;;;20.00;42.24;100745.59;5058150;28;46383;-75
2022/05/24 19:01:08;;;;;;;;;1.00;1.00;;;;;19.55;44.25;100677.22;5058320;28;45771;-75
2022/05/24 19:03:34;;;;;;;;;3.00;1.00;;;;;20.04;45.02;100750.75;5057833;28;45453;-76
2022/05/24 19:06:00;;;;;;;;;1.00;1.00;;;;;19.70;43.85;100693.53;5058267;28;45462;-74
2022/05/24 19:08:29;;;;;;;;;1.00;1.00;;;;;19.92;42.28;100728.16;5057354;28;45450;-71
2022/05/24 19:10:55;;;;;;;;;1.00;1.00;;;;;19.95;42.09;100720.97;5036324;28;45419;-76
2022/05/24 19:13:21;;;;;;;;;1.00;1.00;;;;;20.04;42.41;100750.75;5058068;28;45466;-75
2022/05/24 19:15:53;;;;;;;;;0.00;0.00;;;;;19.93;41.62;100739.63;5059613;28;47055;-74
2022/05/24 19:18:21;;;;;;;;;0.00;0.00;;;;;19.72;41.15;100725.38;5078167;28;46134;-71
2022/05/24 19:20:47;;;;;;;;;0.33;0.33;;;;;19.69;40.93;100728.13;5078321;28;45591;-73
2022/05/24 19:23:13;;;;;;;;;1.00;1.00;;;;;19.56;40.95;100708.19;5077665;28;45638;-73
2022/05/24 19:25:40;;;;;;;;;3.00;1.00;;;;;19.80;41.53;100765.81;5070515;28;45588;-72
2022/05/24 19:28:06;;;;;;;;;0.67;0.33;;;;;19.42;41.24;100736.09;5075546;28;45449;-71
2022/05/24 19:30:31;;;;;;;;;1.00;1.00;;;;;19.65;41.15;100775.16;5074934;28;45545;-72